Time;durP1;ratioP1;P1;durP2;ratioP2;P2;SDS_P1;SDS_P2;PMS_P1;PMS_P2;Temp;Humidity;BMP_temperature;BMP_pressure;BME280_temperature;BME280_humidity;BME280_pressure;Samples;Min_cycle;Max_cycle;Signal;HPM_P1;HPM_P2
2024/03/29 01:43:11;;;;;;;2.00;0.30;;;;;;;8.70;88.85;99333.09;5016093;28;20476;-70
2024/03/29 01:45:40;;;;;;;2.10;0.50;;;;;;;8.67;89.51;99339.13;5017950;28;20221;-70
2024/03/29 01:48:07;;;;;;;3.83;0.77;;;;;;;8.61;89.82;99337.72;5017251;28;20519;-70
2024/03/29 01:50:33;;;;;;;2.00;0.30;;;;;;;8.64;89.00;99337.06;5016871;28;20436;-70
2024/03/29 01:53:01;;;;;;;2.20;0.50;;;;;;;8.59;88.03;99336.13;5016725;28;20460;-70
2024/03/29 01:55:29;;;;;;;2.00;0.30;;;;;;;8.56;88.48;99344.06;5026299;28;20526;-70
2024/03/29 01:57:57;;;;;;;2.10;0.50;;;;;;;8.51;87.93;99336.13;5016687;28;20530;-70
2024/03/29 02:00:24;;;;;;;2.20;0.50;;;;;;;8.47;88.17;99343.25;5016575;28;20537;-70
2024/03/29 02:02:51;;;;;;;2.27;0.70;;;;;;;8.45;88.23;99345.47;5016134;28;20843;-70
2024/03/29 02:05:18;;;;;;;2.30;0.60;;;;;;;8.47;88.34;99338.66;5023100;28;20861;-71
2024/03/29 02:07:47;;;;;;;2.23;0.40;;;;;;;8.43;88.06;99345.00;5016340;28;21007;-70
2024/03/29 02:10:15;;;;;;;2.00;0.40;;;;;;;8.28;88.35;99340.84;5028205;28;20501;-70
2024/03/29 02:12:43;;;;;;;2.53;0.57;;;;;;;8.28;88.88;99343.56;5035579;28;20591;-70
2024/03/29 02:15:09;;;;;;;2.30;0.50;;;;;;;8.31;89.01;99335.59;5024948;28;20443;-70
2024/03/29 02:17:36;;;;;;;2.10;0.40;;;;;;;8.34;89.38;99340.38;5016345;28;20440;-70
2024/03/29 02:20:03;;;;;;;2.10;0.50;;;;;;;8.32;89.66;99348.00;5016584;28;20488;-70
2024/03/29 02:22:31;;;;;;;2.00;0.40;;;;;;;8.33;89.52;99338.00;5015998;28;20460;-70
2024/03/29 02:24:59;;;;;;;2.10;0.40;;;;;;;8.30;89.88;99342.09;5026282;28;20479;-70
2024/03/29 02:27:26;;;;;;;2.03;0.40;;;;;;;8.26;89.28;99343.06;5035937;28;20542;-70
2024/03/29 02:29:52;;;;;;;3.70;0.70;;;;;;;8.24;89.79;99351.47;5035075;28;20448;-70
2024/03/29 02:32:19;;;;;;;2.20;0.50;;;;;;;8.19;89.94;99348.13;5033257;28;20828;-70
2024/03/29 02:34:45;;;;;;;2.17;0.60;;;;;;;8.16;90.45;99344.16;5015625;28;20436;-70
2024/03/29 02:37:12;;;;;;;2.30;0.47;;;;;;;8.18;90.52;99352.72;5016324;28;20475;-70
2024/03/29 02:39:39;;;;;;;2.80;0.80;;;;;;;8.16;90.55;99354.16;5017269;28;20476;-70
2024/03/29 02:42:07;;;;;;;2.10;0.50;;;;;;;8.11;91.20;99363.19;5021207;28;20440;-70
2024/03/29 02:44:34;;;;;;;2.20;0.60;;;;;;;8.11;90.99;99367.78;5015463;28;20523;-70
2024/03/29 02:47:01;;;;;;;2.20;0.60;;;;;;;8.00;91.00;99362.69;5015477;28;20823;-70
2024/03/29 02:49:26;;;;;;;2.10;0.50;;;;;;;7.97;90.79;99367.91;5015720;28;20464;-70
2024/03/29 02:51:54;;;;;;;2.93;0.57;;;;;;;7.97;91.57;99359.81;5026302;28;20487;-70
2024/03/29 02:54:19;;;;;;;2.10;0.40;;;;;;;7.94;91.85;99355.84;5034190;28;20216;-70
2024/03/29 02:56:46;;;;;;;2.50;0.53;;;;;;;7.89;91.29;99350.63;5015505;28;20440;-70
2024/03/29 02:59:13;;;;;;;2.20;0.50;;;;;;;7.87;91.54;99352.03;5015125;28;20260;-69
2024/03/29 03:01:41;;;;;;;2.30;0.67;;;;;;;7.84;90.09;99353.47;5015726;28;20443;-69
2024/03/29 03:04:06;;;;;;;2.60;0.70;;;;;;;7.80;90.69;99365.97;5015684;28;20491;-70
2024/03/29 03:06:33;;;;;;;2.07;0.40;;;;;;;7.74;91.15;99377.97;5023092;28;20874;-69
2024/03/29 03:11:43;;;;;;;2.90;0.63;;;;;;;7.68;91.02;99382.72;5016697;28;20506;-69
2024/03/29 03:14:10;;;;;;;2.10;0.40;;;;;;;7.68;91.32;99385.41;5015160;28;20551;-70
2024/03/29 03:16:37;;;;;;;2.10;0.40;;;;;;;7.64;90.87;99384.44;5020123;28;20878;-70
2024/03/29 03:19:03;;;;;;;2.30;0.47;;;;;;;7.54;92.12;99382.84;5033225;28;20450;-70
2024/03/29 03:21:29;;;;;;;2.10;0.60;;;;;;;7.53;92.80;99380.47;5034702;28;20947;-70
2024/03/29 03:23:56;;;;;;;2.30;0.50;;;;;;;7.54;93.09;99387.44;5034122;28;20558;-70
2024/03/29 03:26:21;;;;;;;2.30;0.50;;;;;;;7.50;93.24;99389.94;5031613;28;20776;-70
2024/03/29 03:28:48;;;;;;;2.40;0.70;;;;;;;7.50;94.03;99397.22;5019819;28;20539;-70
2024/03/29 03:31:14;;;;;;;2.30;0.40;;;;;;;7.47;94.00;99401.31;5014481;28;20437;-69
2024/03/29 03:33:42;;;;;;;2.30;0.70;;;;;;;7.52;93.54;99401.19;5014815;28;20550;-69
2024/03/29 03:36:07;;;;;;;3.03;0.83;;;;;;;7.45;92.86;99389.28;5022287;28;20205;-69
2024/03/29 03:38:36;;;;;;;2.53;0.70;;;;;;;7.47;93.34;99398.63;5016792;28;20527;-69
2024/03/29 03:41:02;;;;;;;2.30;0.60;;;;;;;7.46;92.79;99405.13;5015415;28;20217;-69
2024/03/29 03:43:29;;;;;;;2.50;0.70;;;;;;;7.44;92.71;99410.06;5014613;28;20464;-69
2024/03/29 03:46:00;;;;;;;2.03;0.40;;;;;;;7.43;92.66;99408.44;5015388;28;20698;-69
2024/03/29 03:48:27;;;;;;;7.93;0.83;;;;;;;7.40;92.36;99401.00;5016262;28;20440;-70
2024/03/29 03:50:53;;;;;;;2.60;0.60;;;;;;;7.41;92.51;99399.09;5014537;28;20524;-69
2024/03/29 03:53:20;;;;;;;2.10;0.40;;;;;;;7.42;93.44;99389.91;5014539;28;20464;-69
2024/03/29 03:55:46;;;;;;;2.60;0.60;;;;;;;7.41;93.03;99377.53;5015902;28;20535;-70
2024/03/29 03:58:12;;;;;;;2.10;0.40;;;;;;;7.44;93.26;99368.84;5014517;28;20519;-69
2024/03/29 04:00:38;;;;;;;2.20;0.50;;;;;;;7.42;92.96;99365.66;5030014;28;20216;-69
2024/03/29 04:03:05;;;;;;;2.40;0.70;;;;;;;7.36;92.62;99362.31;5033996;28;20546;-69
2024/03/29 04:05:31;;;;;;;2.30;0.67;;;;;;;7.33;92.65;99363.72;5032475;28;20280;-69
2024/03/29 04:08:00;;;;;;;2.20;0.60;;;;;;;7.30;92.32;99368.91;5025218;28;20443;-69
2024/03/29 04:10:26;;;;;;;2.30;0.60;;;;;;;7.23;90.95;99380.13;5032359;28;20435;-69
2024/03/29 04:12:52;;;;;;;2.53;0.50;;;;;;;7.17;90.80;99373.31;5033586;28;20838;-69
2024/03/29 04:15:18;;;;;;;2.20;0.60;;;;;;;7.16;91.83;99377.06;5030279;28;20296;-69
2024/03/29 04:17:44;;;;;;;2.10;0.50;;;;;;;7.09;91.42;99363.28;5013789;28;21007;-69
2024/03/29 04:20:10;;;;;;;2.87;0.80;;;;;;;7.08;91.12;99370.56;5014332;28;20257;-69
2024/03/29 04:22:37;;;;;;;2.27;0.60;;;;;;;7.07;91.65;99377.03;5015082;28;20550;-69
2024/03/29 04:25:04;;;;;;;4.97;0.93;;;;;;;7.11;91.36;99379.91;5015079;28;20296;-70
2024/03/29 04:27:31;;;;;;;2.07;0.40;;;;;;;7.09;92.03;99374.03;5033506;28;20470;-70
2024/03/29 04:29:56;;;;;;;2.10;0.43;;;;;;;7.00;93.54;99374.00;5034003;28;20474;-70
2024/03/29 04:32:23;;;;;;;2.07;0.40;;;;;;;7.05;93.88;99378.44;5029107;28;20492;-70
2024/03/29 04:34:49;;;;;;;2.50;0.50;;;;;;;7.06;94.46;99361.19;5017618;28;20280;-68
2024/03/29 04:37:16;;;;;;;2.10;0.50;;;;;;;7.08;94.27;99365.16;5029738;28;20839;-69
2024/03/29 04:39:44;;;;;;;2.80;0.57;;;;;;;7.10;94.18;99372.13;5033558;28;20533;-69
2024/03/29 04:42:12;;;;;;;2.30;0.50;;;;;;;7.19;93.97;99381.06;5017484;28;20440;-69
2024/03/29 04:44:39;;;;;;;2.10;0.60;;;;;;;7.23;94.04;99365.88;5013807;28;20483;-69
2024/03/29 04:47:06;;;;;;;2.20;0.50;;;;;;;7.27;93.57;99366.84;5014178;28;20464;-69
2024/03/29 04:49:36;;;;;;;2.50;0.60;;;;;;;7.29;93.58;99365.44;5013362;28;20448;-69
2024/03/29 04:52:03;;;;;;;2.83;0.60;;;;;;;7.31;92.68;99368.63;5024634;28;20458;-69
2024/03/29 04:54:29;;;;;;;2.10;0.50;;;;;;;7.36;92.11;99374.97;5033310;28;20474;-70
2024/03/29 04:56:56;;;;;;;2.30;0.50;;;;;;;7.32;91.12;99364.81;5031363;28;20466;-70
2024/03/29 04:59:24;;;;;;;2.40;0.77;;;;;;;7.34;90.69;99362.59;5033811;28;20439;-70
2024/03/29 05:01:52;;;;;;;2.10;0.40;;;;;;;7.33;90.32;99360.22;5024015;28;21000;-70
2024/03/29 05:04:25;;;;;;;2.20;0.50;;;;;;;7.30;90.66;99360.84;5018965;28;20448;-70
2024/03/29 05:06:51;;;;;;;2.07;0.43;;;;;;;7.40;90.49;99367.88;5013379;28;20897;-70
2024/03/29 05:09:18;;;;;;;2.10;0.43;;;;;;;7.41;90.00;99391.81;5013732;28;20436;-70
2024/03/29 05:11:46;;;;;;;2.37;0.67;;;;;;;7.42;88.95;99384.50;5019174;28;20543;-70
2024/03/29 05:14:13;;;;;;;2.60;0.73;;;;;;;7.46;88.80;99375.50;5033157;28;20584;-70
2024/03/29 05:16:41;;;;;;;2.77;0.70;;;;;;;7.46;88.01;99380.88;5033206;28;20493;-70
2024/03/29 05:19:08;;;;;;;2.50;0.73;;;;;;;7.45;87.30;99394.69;5033155;28;20813;-70
2024/03/29 05:21:34;;;;;;;2.40;0.53;;;;;;;7.44;86.89;99395.78;5031356;28;20562;-70
2024/03/29 05:24:01;;;;;;;2.37;0.47;;;;;;;7.51;87.17;99388.03;5028070;28;20491;-70
2024/03/29 05:26:28;;;;;;;2.50;0.53;;;;;;;7.53;87.81;99407.41;5032405;28;20439;-70
2024/03/29 05:28:57;;;;;;;2.20;0.40;;;;;;;7.53;87.56;99397.41;5033120;28;20447;-70
2024/03/29 05:31:24;;;;;;;6.03;0.70;;;;;;;7.61;87.10;99408.53;5019438;28;20819;-69
2024/03/29 05:33:52;;;;;;;2.10;0.40;;;;;;;7.60;87.64;99407.72;5016877;28;20468;-70
2024/03/29 05:36:18;;;;;;;2.63;0.60;;;;;;;7.69;88.05;99395.09;5013288;28;20479;-70
2024/03/29 05:38:45;;;;;;;2.13;0.53;;;;;;;7.72;87.15;99383.69;5014989;28;20994;-70
2024/03/29 05:41:12;;;;;;;2.00;0.40;;;;;;;7.78;87.11;99368.97;5032779;28;20564;-70
2024/03/29 05:43:40;;;;;;;2.50;0.60;;;;;;;7.85;86.49;99360.44;5032095;28;20546;-70
2024/03/29 05:46:06;;;;;;;2.90;0.60;;;;;;;7.88;85.83;99375.16;5013563;28;20547;-69
2024/03/29 05:48:33;;;;;;;2.00;0.40;;;;;;;7.94;85.10;99387.41;5015595;28;20440;-70
2024/03/29 05:51:02;;;;;;;2.00;0.40;;;;;;;7.95;85.89;99387.09;5026599;28;20462;-69
2024/03/29 05:53:28;;;;;;;2.20;0.47;;;;;;;8.01;86.21;99385.03;5036090;28;20487;-69
2024/03/29 05:55:55;;;;;;;2.10;0.40;;;;;;;8.07;85.56;99397.28;5020663;28;20966;-69
2024/03/29 05:58:22;;;;;;;2.20;0.57;;;;;;;8.12;84.32;99385.56;5017129;28;20475;-69
2024/03/29 06:00:49;;;;;;;2.10;0.40;;;;;;;8.15;85.15;99396.53;5016447;28;20483;-69
2024/03/29 06:03:16;;;;;;;2.03;0.40;;;;;;;8.18;83.11;99397.78;5016629;28;20452;-69
2024/03/29 06:05:41;;;;;;;2.13;0.50;;;;;;;8.18;82.47;99405.88;5016357;28;20486;-70
2024/03/29 06:08:09;;;;;;;3.17;0.70;;;;;;;8.26;82.67;99416.69;5029622;28;20485;-70
2024/03/29 06:10:36;;;;;;;2.00;0.40;;;;;;;8.37;83.09;99411.84;5027826;28;20284;-70
2024/03/29 06:13:10;;;;;;;2.73;0.80;;;;;;;8.47;83.14;99430.41;5034525;28;20501;-70
2024/03/29 06:18:21;;;;;;;2.60;0.60;;;;;;;8.50;80.05;99427.09;5008801;28;20415;-70
2024/03/29 06:20:48;;;;;;;2.30;0.60;;;;;;;8.55;80.66;99426.94;5030833;28;20974;-70
2024/03/29 06:23:16;;;;;;;2.00;0.40;;;;;;;8.54;79.39;99427.22;5036189;28;20558;-69
2024/03/29 06:25:43;;;;;;;2.20;0.50;;;;;;;8.60;80.45;99428.69;5031272;28;20787;-69
2024/03/29 06:28:09;;;;;;;2.20;0.60;;;;;;;8.57;79.09;99435.50;5025891;28;20457;-69
2024/03/29 06:30:36;;;;;;;2.20;0.60;;;;;;;8.67;80.05;99434.38;5036145;28;20808;-69
2024/03/29 06:33:03;;;;;;;2.17;0.53;;;;;;;8.74;79.39;99437.41;5027774;28;20540;-69
2024/03/29 06:35:30;;;;;;;2.00;0.30;;;;;;;8.72;77.41;99441.53;5017149;28;20796;-69
2024/03/29 06:37:57;;;;;;;2.03;0.40;;;;;;;8.80;76.58;99443.44;5016958;28;20527;-69
2024/03/29 06:40:25;;;;;;;2.03;0.40;;;;;;;8.87;76.96;99445.69;5015736;28;20999;-68
2024/03/29 06:42:52;;;;;;;2.30;0.40;;;;;;;8.98;77.21;99444.25;5015907;28;20503;-68
2024/03/29 06:45:19;;;;;;;2.40;0.57;;;;;;;9.06;76.38;99454.25;5016734;28;20514;-69
2024/03/29 06:47:45;;;;;;;2.20;0.50;;;;;;;9.13;75.62;99457.28;5015573;28;20936;-68
2024/03/29 06:50:12;;;;;;;2.47;0.47;;;;;;;9.22;76.46;99465.38;5016462;28;20450;-68
2024/03/29 06:52:39;;;;;;;2.10;0.30;;;;;;;9.33;75.56;99463.91;5035584;28;20979;-68
2024/03/29 06:55:06;;;;;;;2.50;0.50;;;;;;;9.40;74.73;99460.75;5033779;28;20502;-69
2024/03/29 06:57:35;;;;;;;2.50;0.40;;;;;;;9.48;74.35;99473.47;5024159;28;20436;-68
2024/03/29 07:00:03;;;;;;;2.90;0.67;;;;;;;9.57;74.87;99476.94;5015322;28;20506;-68
2024/03/29 07:02:29;;;;;;;2.77;0.50;;;;;;;9.54;71.24;99472.16;5015486;28;20555;-68
2024/03/29 07:04:56;;;;;;;2.30;0.50;;;;;;;9.62;72.81;99468.66;5015317;28;20499;-69
2024/03/29 07:07:23;;;;;;;2.07;0.40;;;;;;;9.67;71.66;99465.78;5024204;28;20432;-68
2024/03/29 07:09:49;;;;;;;5.30;0.77;;;;;;;9.70;71.48;99478.66;5014054;28;20472;-68
2024/03/29 07:12:16;;;;;;;2.20;0.40;;;;;;;9.79;71.38;99484.84;5015622;28;20454;-68
2024/03/29 07:14:44;;;;;;;2.20;0.40;;;;;;;9.81;70.56;99498.03;5015227;28;20490;-68
2024/03/29 07:17:10;;;;;;;2.13;0.40;;;;;;;9.85;70.32;99491.66;5024601;28;20866;-68
2024/03/29 07:19:37;;;;;;;2.10;0.40;;;;;;;9.93;69.73;99503.56;5015436;28;20472;-69
2024/03/29 07:22:04;;;;;;;2.17;0.47;;;;;;;9.98;70.03;99514.19;5015294;28;20490;-69
2024/03/29 07:24:31;;;;;;;2.10;0.40;;;;;;;10.01;69.75;99513.56;5015040;28;20562;-70
2024/03/29 07:26:57;;;;;;;2.20;0.50;;;;;;;9.99;68.50;99515.78;5033590;22;20447;-64
2024/03/29 07:29:24;;;;;;;2.40;0.63;;;;;;;9.94;69.34;99520.59;5054527;28;20482;-67
2024/03/29 07:31:52;;;;;;;2.63;0.70;;;;;;;9.97;68.44;99528.06;5054837;28;20781;-67
2024/03/29 07:34:20;;;;;;;8.20;0.80;;;;;;;9.97;68.21;99523.44;5032655;28;20461;-67
2024/03/29 07:36:46;;;;;;;2.70;0.90;;;;;;;10.05;67.78;99540.78;5028606;28;20514;-66
2024/03/29 07:39:13;;;;;;;2.10;0.40;;;;;;;10.13;67.62;99548.03;5034234;28;20450;-68
2024/03/29 07:41:40;;;;;;;2.30;0.57;;;;;;;10.15;66.98;99542.31;5034469;28;20824;-68
2024/03/29 07:44:08;;;;;;;2.20;0.50;;;;;;;10.18;67.48;99542.47;5033974;28;20553;-68
2024/03/29 07:46:35;;;;;;;2.20;0.50;;;;;;;10.25;67.78;99544.69;5034361;28;20550;-68
2024/03/29 07:49:04;;;;;;;2.10;0.40;;;;;;;10.35;67.85;99534.28;5034587;28;20451;-68
2024/03/29 07:51:30;;;;;;;2.30;0.50;;;;;;;10.44;66.54;99541.59;5033781;28;20459;-68
2024/03/29 07:53:57;;;;;;;2.40;0.60;;;;;;;10.45;66.75;99535.88;5034582;28;20554;-69
2024/03/29 07:56:25;;;;;;;2.60;0.50;;;;;;;10.56;66.50;99550.59;5033739;28;20473;-68
2024/03/29 07:58:52;;;;;;;2.60;0.60;;;;;;;10.62;66.61;99559.34;5033890;28;20538;-68
2024/03/29 08:01:20;;;;;;;2.10;0.40;;;;;;;10.68;66.22;99562.69;5033414;28;20494;-68
2024/03/29 08:03:46;;;;;;;3.33;0.70;;;;;;;10.70;66.59;99572.03;5033990;28;20455;-68
2024/03/29 08:06:16;;;;;;;2.77;0.50;;;;;;;10.68;65.75;99578.91;5034080;28;20442;-68
2024/03/29 08:08:43;;;;;;;2.20;0.50;;;;;;;10.70;66.39;99576.66;5033535;28;20811;-68
2024/03/29 08:11:10;;;;;;;2.20;0.57;;;;;;;10.70;66.09;99571.25;5033521;28;20431;-68
2024/03/29 08:13:37;;;;;;;3.13;0.70;;;;;;;10.80;66.79;99570.88;5033988;28;20963;-68
2024/03/29 08:16:03;;;;;;;3.50;0.60;;;;;;;10.85;67.64;99551.75;5033809;28;20447;-68
2024/03/29 08:18:31;;;;;;;2.40;0.50;;;;;;;10.93;67.88;99556.28;5033152;28;20475;-68
2024/03/29 08:20:59;;;;;;;2.10;0.30;;;;;;;10.97;69.37;99556.44;5032898;28;20680;-68
2024/03/29 08:23:27;;;;;;;2.20;0.40;;;;;;;11.00;69.16;99558.50;5033591;28;20471;-69
2024/03/29 08:25:55;;;;;;;2.20;0.40;;;;;;;11.04;71.79;99545.88;5033010;28;20526;-67
2024/03/29 08:28:22;;;;;;;2.20;0.50;;;;;;;11.16;72.82;99539.75;5033526;28;20459;-67
2024/03/29 08:30:59;;;;;;;2.40;0.60;;;;;;;11.22;75.03;99522.94;5035000;28;20439;-68
2024/03/29 08:33:25;;;;;;;2.30;0.57;;;;;;;11.27;74.58;99522.72;5034538;28;20970;-68
2024/03/29 08:35:52;;;;;;;2.10;0.40;;;;;;;11.36;74.60;99512.59;5034287;28;20478;-66
2024/03/29 08:38:19;;;;;;;5.33;0.67;;;;;;;11.45;76.01;99509.03;5033904;28;20511;-70
2024/03/29 08:40:48;;;;;;;2.40;0.57;;;;;;;11.59;74.87;99509.53;5033128;28;21004;-68
2024/03/29 08:43:14;;;;;;;2.17;0.60;;;;;;;11.74;73.85;99516.25;5032001;28;20463;-67
2024/03/29 08:45:41;;;;;;;5.40;0.70;;;;;;;11.89;72.56;99529.22;5033515;28;20440;-68
2024/03/29 08:48:08;;;;;;;3.47;0.87;;;;;;;12.03;70.26;99534.31;5033474;28;20532;-67
2024/03/29 08:50:35;;;;;;;2.43;0.70;;;;;;;12.14;69.12;99549.06;5033632;28;20446;-67
2024/03/29 08:53:03;;;;;;;8.53;0.73;;;;;;;12.21;68.51;99541.13;5034480;28;20545;-67
2024/03/29 08:55:29;;;;;;;2.03;0.30;;;;;;;12.35;68.49;99530.75;5033432;28;20490;-68
2024/03/29 08:57:58;;;;;;;2.50;0.50;;;;;;;12.54;69.01;99523.97;5032906;28;20522;-67
2024/03/29 09:00:24;;;;;;;2.17;0.50;;;;;;;12.73;68.14;99523.38;5033793;28;20443;-69
2024/03/29 09:02:51;;;;;;;2.23;0.53;;;;;;;12.90;67.27;99519.63;5032862;28;20999;-68
2024/03/29 09:05:18;;;;;;;2.10;0.40;;;;;;;12.96;67.15;99520.97;5033318;28;20522;-67
2024/03/29 09:07:45;;;;;;;2.13;0.47;;;;;;;13.10;66.43;99524.09;5031123;28;20527;-65
2024/03/29 09:10:11;;;;;;;2.63;0.63;;;;;;;13.14;65.09;99538.59;5033069;28;20474;-68
2024/03/29 09:12:38;;;;;;;2.43;0.50;;;;;;;13.19;64.12;99537.56;5032645;28;20539;-67
2024/03/29 09:15:12;;;;;;;2.30;0.50;;;;;;;13.17;62.18;99534.41;5033364;28;20523;-68
2024/03/29 09:17:39;;;;;;;2.20;0.50;;;;;;;13.13;61.29;99539.72;5033205;28;20778;-68
2024/03/29 09:20:06;;;;;;;3.43;0.63;;;;;;;13.11;60.83;99544.72;5032734;28;20467;-68
2024/03/29 09:22:33;;;;;;;4.13;0.70;;;;;;;13.19;60.97;99546.50;5034861;28;20967;-67
2024/03/29 09:25:00;;;;;;;2.83;0.70;;;;;;;13.18;59.26;99544.13;5038469;28;20527;-67
2024/03/29 09:27:28;;;;;;;2.90;0.67;;;;;;;13.13;60.01;99547.88;5036747;28;21018;-67
2024/03/29 09:29:55;;;;;;;2.10;0.43;;;;;;;13.10;59.25;99556.72;5037312;28;20482;-67
2024/03/29 09:32:24;;;;;;;2.00;0.40;;;;;;;13.08;60.12;99559.78;5036935;28;20494;-72
2024/03/29 09:34:51;;;;;;;2.53;0.50;;;;;;;13.01;59.48;99556.84;5036038;28;20497;-69
2024/03/29 09:37:17;;;;;;;2.30;0.50;;;;;;;13.09;60.29;99561.38;5035889;28;20450;-71
2024/03/29 09:39:44;;;;;;;4.20;0.73;;;;;;;13.19;61.07;99553.88;5036414;28;20919;-69
2024/03/29 09:42:16;;;;;;;2.37;0.40;;;;;;;13.31;60.21;99543.78;5036320;28;20483;-69
2024/03/29 09:44:45;;;;;;;2.70;0.70;;;;;;;13.30;59.62;99566.69;5036594;28;20441;-69
2024/03/29 09:47:15;;;;;;;2.00;0.30;;;;;;;13.30;58.69;99574.06;5035979;28;20435;-69
2024/03/29 09:49:47;;;;;;;2.07;0.40;;;;;;;13.26;58.11;99559.56;5036791;28;20514;-70
2024/03/29 09:52:14;;;;;;;2.20;0.53;;;;;;;13.26;57.42;99568.50;5036178;28;20451;-69
2024/03/29 09:54:41;;;;;;;2.30;0.43;;;;;;;13.23;57.69;99563.75;5036683;28;20475;-69
2024/03/29 09:57:09;;;;;;;2.10;0.40;;;;;;;13.21;59.11;99559.78;5036828;28;20464;-69
2024/03/29 09:59:37;;;;;;;2.20;0.50;;;;;;;13.10;57.81;99560.25;5036658;28;20439;-69
2024/03/29 10:02:12;;;;;;;4.10;0.50;;;;;;;13.02;60.24;99557.66;5036066;28;20489;-69
2024/03/29 10:04:40;;;;;;;2.20;0.50;;;;;;;13.06;59.29;99547.69;5035721;28;20427;-69
2024/03/29 10:07:08;;;;;;;3.50;0.50;;;;;;;13.11;59.49;99545.53;5033009;28;20427;-70
2024/03/29 10:09:36;;;;;;;2.10;0.40;;;;;;;13.23;59.69;99549.38;5032760;28;20463;-70
2024/03/29 10:12:04;;;;;;;2.60;0.70;;;;;;;13.21;61.22;99540.75;5036069;28;20522;-70
2024/03/29 10:14:31;;;;;;;2.20;0.60;;;;;;;13.20;64.19;99534.50;5035764;28;20450;-70
2024/03/29 10:16:58;;;;;;;6.53;0.50;;;;;;;13.11;63.66;99517.53;5036076;28;20447;-70
2024/03/29 10:19:25;;;;;;;2.30;0.50;;;;;;;13.04;61.49;99520.84;5036405;28;20463;-70
2024/03/29 10:21:52;;;;;;;2.20;0.40;;;;;;;12.86;63.90;99500.50;5036233;28;20550;-70
2024/03/29 10:24:20;;;;;;;2.73;0.60;;;;;;;12.72;67.19;99505.50;5036202;28;20848;-70
2024/03/29 10:26:47;;;;;;;2.40;0.50;;;;;;;12.63;66.55;99513.78;5035643;28;20451;-69
2024/03/29 10:29:14;;;;;;;2.57;0.77;;;;;;;12.49;68.37;99505.19;5035642;28;20509;-70
2024/03/29 10:31:41;;;;;;;2.37;0.70;;;;;;;12.42;68.20;99502.22;5035771;28;20456;-70
2024/03/29 10:34:08;;;;;;;2.17;0.47;;;;;;;12.45;69.00;99509.72;5032282;28;20491;-70
2024/03/29 10:36:35;;;;;;;2.07;0.43;;;;;;;12.54;69.65;99508.47;5032559;28;20431;-70
2024/03/29 10:39:03;;;;;;;2.07;0.40;;;;;;;12.54;72.13;99494.88;5035758;28;20427;-70
2024/03/29 10:41:33;;;;;;;2.10;0.40;;;;;;;12.65;69.44;99513.44;5035388;28;20506;-70
2024/03/29 10:44:03;;;;;;;2.10;0.40;;;;;;;12.55;70.77;99520.13;5030226;28;20528;-70
2024/03/29 10:46:31;;;;;;;5.13;0.60;;;;;;;12.55;71.03;99509.25;5035221;28;20428;-70
2024/03/29 10:48:58;;;;;;;2.20;0.50;;;;;;;12.65;70.07;99506.06;5026247;28;20542;-70
2024/03/29 10:51:25;;;;;;;2.20;0.50;;;;;;;12.62;73.81;99506.75;5020035;28;20439;-69
2024/03/29 10:53:53;;;;;;;2.73;0.93;;;;;;;12.49;74.13;99518.78;5029240;28;20537;-70
2024/03/29 10:56:23;;;;;;;2.20;0.60;;;;;;;12.41;76.05;99516.94;5025432;28;20467;-70
2024/03/29 10:58:57;;;;;;;2.13;0.43;;;;;;;12.32;78.21;99504.28;5035690;28;20451;-70
2024/03/29 11:01:25;;;;;;;2.30;0.57;;;;;;;12.36;76.64;99501.69;5033614;28;20438;-70
2024/03/29 11:04:00;;;;;;;2.27;0.70;;;;;;;12.31;79.93;99496.47;5034845;28;20502;-70
2024/03/29 11:06:32;;;;;;;2.40;0.70;;;;;;;12.24;78.22;99494.31;5035193;28;20939;-70
2024/03/29 11:09:02;;;;;;;2.60;0.60;;;;;;;12.27;77.17;99473.84;5034806;28;20431;-70
2024/03/29 11:11:31;;;;;;;2.10;0.40;;;;;;;12.30;75.86;99471.22;5034169;28;20450;-69
2024/03/29 11:14:04;;;;;;;2.70;0.53;;;;;;;12.29;76.50;99471.56;5035639;28;20459;-69
2024/03/29 11:16:31;;;;;;;2.20;0.50;;;;;;;12.34;78.12;99466.69;5034886;28;20435;-70
2024/03/29 11:18:58;;;;;;;4.33;0.80;;;;;;;12.35;78.57;99464.78;5030079;28;20523;-70
2024/03/29 11:21:28;;;;;;;4.40;0.60;;;;;;;12.46;77.64;99459.69;5015084;28;20440;-70
2024/03/29 11:23:57;;;;;;;2.47;0.70;;;;;;;12.66;76.35;99449.78;5032622;28;20471;-69
2024/03/29 11:26:25;;;;;;;2.40;0.60;;;;;;;12.74;76.85;99436.09;5034289;28;20443;-67
2024/03/29 11:28:53;;;;;;;2.60;0.63;;;;;;;12.86;74.77;99440.69;5034307;28;20862;-67
2024/03/29 11:31:25;;;;;;;2.53;0.60;;;;;;;12.88;74.94;99433.81;5034699;28;20531;-68
2024/03/29 11:33:53;;;;;;;2.10;0.40;;;;;;;12.90;74.99;99438.09;5033752;28;20486;-68
2024/03/29 11:36:23;;;;;;;2.43;0.53;;;;;;;12.97;75.64;99447.25;5033363;28;20435;-68
2024/03/29 11:38:51;;;;;;;2.37;0.40;;;;;;;13.07;74.04;99424.22;5034088;28;20481;-68
2024/03/29 11:41:20;;;;;;;2.50;0.50;;;;;;;13.22;74.20;99420.78;5034358;28;20526;-67
2024/03/29 11:43:47;;;;;;;2.07;0.40;;;;;;;13.28;72.71;99422.13;5034023;28;20486;-68
2024/03/29 11:46:15;;;;;;;2.30;0.50;;;;;;;13.40;72.81;99420.47;5033411;28;20963;-69
2024/03/29 11:48:44;;;;;;;2.63;0.57;;;;;;;13.53;72.86;99427.41;5034476;28;20463;-69
2024/03/29 11:51:14;;;;;;;3.90;0.80;;;;;;;13.57;71.85;99431.00;5034070;28;20484;-68
2024/03/29 11:53:41;;;;;;;2.33;0.67;;;;;;;13.48;68.67;99435.84;5033382;28;20881;-67
2024/03/29 11:56:08;;;;;;;2.60;0.60;;;;;;;13.41;69.30;99432.91;5034871;28;20514;-68
2024/03/29 11:58:35;;;;;;;2.40;0.50;;;;;;;13.35;71.10;99435.09;5033805;28;20467;-68
2024/03/29 12:01:03;;;;;;;3.17;0.70;;;;;;;13.40;72.17;99436.78;5034089;28;20486;-68
2024/03/29 12:03:30;;;;;;;2.10;0.40;;;;;;;13.40;71.86;99444.94;5034000;28;20483;-68
2024/03/29 12:06:01;;;;;;;2.50;0.50;;;;;;;13.36;72.01;99453.00;5033682;28;20483;-68
2024/03/29 12:08:30;;;;;;;2.10;0.40;;;;;;;13.24;72.58;99442.97;5033632;28;20466;-66
2024/03/29 12:10:58;;;;;;;2.20;0.43;;;;;;;13.19;71.43;99432.31;5033221;28;20435;-66
2024/03/29 12:13:24;;;;;;;2.10;0.40;;;;;;;13.18;74.95;99436.16;5033523;28;20989;-65
2024/03/29 12:15:51;;;;;;;2.10;0.40;;;;;;;13.14;72.06;99427.13;5033828;28;20439;-66
2024/03/29 12:18:21;;;;;;;2.40;0.53;;;;;;;13.12;72.10;99429.41;5033212;28;20943;-67
2024/03/29 12:20:49;;;;;;;2.30;0.40;;;;;;;13.18;73.65;99430.72;5033754;28;20519;-68
2024/03/29 12:23:18;;;;;;;2.97;0.50;;;;;;;13.22;72.82;99425.38;5033921;28;20561;-67
2024/03/29 12:25:45;;;;;;;2.10;0.40;;;;;;;13.19;72.34;99436.94;5033561;28;20439;-67
2024/03/29 12:28:12;;;;;;;2.60;0.73;;;;;;;13.18;75.85;99424.50;5032959;28;20534;-67
2024/03/29 12:30:42;;;;;;;2.10;0.40;;;;;;;13.23;72.13;99416.91;5033965;28;20478;-67
2024/03/29 12:33:13;;;;;;;2.10;0.40;;;;;;;13.27;74.41;99400.69;5033318;28;20538;-67
2024/03/29 12:35:42;;;;;;;2.13;0.50;;;;;;;13.52;71.80;99406.78;5033304;28;20439;-67
2024/03/29 12:38:09;;;;;;;2.30;0.50;;;;;;;13.73;72.53;99415.50;5033105;28;20459;-67
2024/03/29 12:40:37;;;;;;;2.30;0.50;;;;;;;14.06;71.07;99406.16;5033041;28;20442;-67
2024/03/29 12:43:05;;;;;;;2.57;0.60;;;;;;;14.45;70.26;99403.56;5032278;28;20578;-67
2024/03/29 12:45:33;;;;;;;2.20;0.40;;;;;;;14.86;67.87;99402.09;5033262;28;20447;-67
2024/03/29 12:47:59;;;;;;;2.20;0.50;;;;;;;15.23;66.25;99401.66;5033554;28;20526;-67
2024/03/29 12:50:28;;;;;;;2.20;0.60;;;;;;;15.34;61.30;99417.06;5033699;28;20522;-67
2024/03/29 12:52:57;;;;;;;2.10;0.40;;;;;;;15.31;61.82;99412.34;5033670;28;20877;-67
2024/03/29 12:55:24;;;;;;;2.20;0.50;;;;;;;15.09;62.37;99405.69;5033405;28;20530;-67
2024/03/29 12:57:53;;;;;;;2.13;0.40;;;;;;;14.75;61.09;99406.56;5034971;28;20469;-68
2024/03/29 13:00:20;;;;;;;2.30;0.50;;;;;;;14.70;60.83;99404.09;5033486;28;20450;-68
2024/03/29 13:02:47;;;;;;;2.10;0.50;;;;;;;14.65;61.76;99418.81;5027510;28;20497;-68
2024/03/29 13:05:13;;;;;;;2.27;0.60;;;;;;;14.56;60.08;99415.50;5036659;28;21298;-68
2024/03/29 13:07:40;;;;;;;2.60;0.70;;;;;;;14.52;61.57;99414.63;5036972;28;20441;-68
2024/03/29 13:10:13;;;;;;;2.20;0.40;;;;;;;14.49;61.62;99404.47;5030013;28;20430;-68
2024/03/29 13:12:42;;;;;;;2.27;0.57;;;;;;;14.43;61.37;99395.72;5038063;28;20554;-71
2024/03/29 13:15:18;;;;;;;2.07;0.40;;;;;;;14.41;60.08;99389.84;5037745;28;20934;-67
2024/03/29 13:17:45;;;;;;;2.10;0.40;;;;;;;14.42;60.04;99382.47;5036322;28;20423;-68
2024/03/29 13:20:13;;;;;;;2.00;0.40;;;;;;;14.45;59.31;99387.22;5036779;28;20513;-68
2024/03/29 13:22:41;;;;;;;2.23;0.50;;;;;;;14.49;58.83;99377.22;5036360;28;20490;-68
2024/03/29 13:25:09;;;;;;;2.73;0.60;;;;;;;14.62;57.27;99382.16;5036917;28;20443;-68